Time;durP1;ratioP1;P1;durP2;ratioP2;P2;SDS_P1;SDS_P2;PMS_P1;PMS_P2;Temp;Humidity;BMP_temperature;BMP_pressure;BME280_temperature;BME280_humidity;BME280_pressure;Samples;Min_cycle;Max_cycle;Signal;HPM_P1;HPM_P2
2022/05/26 00:01:24;;;;;;;32.65;6.95;;;13.80;99.90;;;;;;5089807;28;20048;-76
2022/05/26 00:03:51;;;;;;;24.92;6.97;;;13.80;99.90;;;;;;5089566;28;20518;-76
2022/05/26 00:06:20;;;;;;;27.88;6.57;;;13.90;99.90;;;;;;5089454;28;20052;-74
2022/05/26 00:08:46;;;;;;;33.33;7.60;;;13.80;99.90;;;;;;5081759;28;20055;-78
2022/05/26 00:11:15;;;;;;;31.65;7.63;;;14.00;99.90;;;;;;5069695;28;20048;-75
2022/05/26 00:13:42;;;;;;;31.58;7.53;;;13.80;99.90;;;;;;5069407;28;20045;-75
2022/05/26 00:16:08;;;;;;;25.60;7.15;;;13.90;99.90;;;;;;5069071;28;20045;-75
2022/05/26 00:18:34;;;;;;;31.55;7.35;;;13.90;99.90;;;;;;5099592;28;20053;-75
2022/05/26 00:21:00;;;;;;;30.02;7.35;;;13.90;99.90;;;;;;5109994;28;20050;-77
2022/05/26 00:23:26;;;;;;;35.28;7.57;;;13.80;99.90;;;;;;5109994;28;20047;-78
2022/05/26 00:25:51;;;;;;;28.35;7.68;;;13.80;99.90;;;;;;5109807;28;20043;-76
2022/05/26 00:28:17;;;;;;;35.83;8.07;;;13.80;99.90;;;;;;5091756;28;20088;-76
2022/05/26 00:30:43;;;;;;;39.83;8.05;;;13.80;99.90;;;;;;5095031;28;20043;-75
2022/05/26 00:33:09;;;;;;;44.30;8.05;;;13.80;99.90;;;;;;5113942;28;20043;-76
2022/05/26 00:35:36;;;;;;;34.28;8.95;;;13.80;99.90;;;;;;5113541;28;20051;-74
2022/05/26 00:38:03;;;;;;;38.50;8.13;;;13.80;99.90;;;;;;5113255;28;20047;-77
2022/05/26 00:40:29;;;;;;;40.85;8.48;;;13.80;99.90;;;;;;5113902;28;20394;-76
2022/05/26 00:42:55;;;;;;;32.72;8.52;;;13.80;99.90;;;;;;5113921;28;20035;-76
2022/05/26 00:45:20;;;;;;;35.78;8.40;;;13.80;99.90;;;;;;5113833;28;20497;-75
2022/05/26 00:47:47;;;;;;;37.00;7.65;;;13.80;99.90;;;;;;5095075;28;20799;-78
2022/05/26 00:50:22;;;;;;;41.10;8.00;;;13.80;99.90;;;;;;5112912;28;20521;-75
2022/05/26 00:52:50;;;;;;;;;;;13.80;99.90;;;;;;5113740;28;20421;-76
2022/05/26 00:55:40;;;;;;;38.78;8.52;;;13.80;99.90;;;;;;5113432;28;19923;-77
2022/05/26 00:58:31;;;;;;;35.13;8.05;;;14.10;99.90;;;;;;5113373;28;20052;-76
2022/05/26 01:01:00;;;;;;;32.90;7.78;;;13.70;99.90;;;;;;5010768;28;20062;-77
2022/05/26 01:03:37;;;;;;;33.97;7.90;;;13.70;99.90;;;;;;5007638;28;20176;-78
2022/05/26 01:06:10;;;;;;;36.75;8.93;;;13.80;99.90;;;;;;4990426;28;20141;-78
2022/05/26 01:08:58;;;;;;;37.28;8.50;;;13.70;99.90;;;;;;4990410;28;20050;-80
2022/05/26 01:11:25;;;;;;;40.92;9.35;;;13.90;99.90;;;;;;4990724;28;20057;-78
2022/05/26 01:14:06;;;;;;;42.97;8.57;;;13.70;99.90;;;;;;4974593;28;20046;-78
2022/05/26 01:16:51;;;;;;;33.15;7.70;;;13.70;99.90;;;;;;4990263;28;20052;-77
2022/05/26 01:19:35;;;;;;;;;;;13.70;99.90;;;;;;4990674;28;20062;-76
2022/05/26 01:22:13;;;;;;;39.15;8.27;;;13.70;99.90;;;;;;4990504;28;19921;-73
2022/05/26 01:25:10;;;;;;;36.75;7.80;;;13.70;99.90;;;;;;4990169;28;20054;-77
2022/05/26 01:27:38;;;;;;;46.47;8.10;;;13.70;99.90;;;;;;4989998;28;20052;-76
2022/05/26 01:30:24;;;;;;;37.25;8.57;;;13.60;99.90;;;;;;4990007;28;20100;-75
2022/05/26 01:33:13;;;;;;;34.05;7.97;;;13.70;99.90;;;;;;4990199;28;20510;-74
2022/05/26 01:36:14;;;;;;;39.63;7.90;;;13.60;99.90;;;;;;4989885;28;20129;-78
2022/05/26 01:38:51;;;;;;;36.30;7.50;;;13.60;99.90;;;;;;5071373;28;20048;-75
2022/05/26 01:41:55;;;;;;;37.72;8.10;;;13.60;99.90;;;;;;5092095;28;20055;-76
2022/05/26 01:44:49;;;;;;;32.58;7.65;;;13.60;99.90;;;;;;5091979;28;20044;-76
2022/05/26 01:47:57;;;;;;;53.95;9.75;;;13.60;99.90;;;;;;5092121;28;20044;-77
2022/05/26 01:50:43;;;;;;;37.38;7.80;;;13.60;99.90;;;;;;5078281;28;20462;-78
2022/05/26 01:53:25;;;;;;;41.65;8.68;;;13.60;99.90;;;;;;5074022;28;20485;-75
2022/05/26 01:56:05;;;;;;;36.78;7.85;;;13.60;99.90;;;;;;5112941;28;20089;-74
2022/05/26 01:58:35;;;;;;;32.53;7.70;;;13.60;99.90;;;;;;5112136;28;20107;-77
2022/05/26 02:01:06;;;;;;;37.08;7.40;;;13.60;99.90;;;;;;5105246;28;20051;-77
2022/05/26 02:03:34;;;;;;;42.67;8.50;;;13.60;99.90;;;;;;5092006;28;20043;-75
2022/05/26 02:06:19;;;;;;;40.38;8.82;;;13.70;99.90;;;;;;5092447;28;20052;-77
2022/05/26 02:09:08;;;;;;;45.53;7.70;;;13.50;99.90;;;;;;5091775;28;20103;-76
2022/05/26 02:11:39;;;;;;;43.83;8.18;;;13.50;99.90;;;;;;5092337;28;20043;-78
2022/05/26 02:14:14;;;;;;;33.28;7.72;;;13.50;99.90;;;;;;5110410;28;20104;-76
2022/05/26 02:17:06;;;;;;;47.67;8.95;;;13.50;99.90;;;;;;5100006;28;20083;-74
2022/05/26 02:19:37;;;;;;;40.08;8.55;;;13.50;99.90;;;;;;4970074;28;20062;-78
2022/05/26 02:22:15;;;;;;;45.83;8.20;;;13.50;99.90;;;;;;4981524;28;20050;-75
2022/05/26 02:24:56;;;;;;;34.75;7.70;;;13.50;99.90;;;;;;4989303;28;20141;-73
2022/05/26 02:27:23;;;;;;;33.75;8.10;;;13.50;99.90;;;;;;4986516;28;20720;-78
2022/05/26 02:29:51;;;;;;;32.17;7.60;;;13.40;99.90;;;;;;4976907;28;20042;-76
2022/05/26 02:32:21;;;;;;;35.78;6.68;;;13.40;99.90;;;;;;4980141;28;20566;-75
2022/05/26 02:34:50;;;;;;;39.58;7.45;;;13.40;99.90;;;;;;4980254;28;20053;-75
2022/05/26 02:37:17;;;;;;;33.45;7.35;;;13.40;99.90;;;;;;4988542;28;20054;-78
2022/05/26 02:39:43;;;;;;;31.40;7.47;;;13.40;99.90;;;;;;4988953;28;20081;-75
2022/05/26 02:42:10;;;;;;;38.55;7.13;;;13.30;99.90;;;;;;4988452;28;20108;-78
2022/05/26 02:44:37;;;;;;;33.65;7.03;;;13.40;99.90;;;;;;4988931;28;20066;-78
2022/05/26 02:47:11;;;;;;;46.90;7.63;;;13.30;99.90;;;;;;4972364;28;20042;-75
2022/05/26 02:49:51;;;;;;;43.13;7.78;;;13.20;99.90;;;;;;4988932;28;20081;-75
2022/05/26 02:52:25;;;;;;;35.22;7.07;;;13.20;99.90;;;;;;4972380;28;20115;-76
2022/05/26 02:55:10;;;;;;;40.33;7.32;;;13.20;99.90;;;;;;4989122;28;20049;-75
2022/05/26 02:58:00;;;;;;;;;;;13.20;99.90;;;;;;5061043;28;20139;-75
2022/05/26 03:00:44;;;;;;;35.47;7.47;;;13.10;99.90;;;;;;5027600;28;19982;-76
2022/05/26 03:03:19;;;;;;;41.50;7.55;;;13.10;99.90;;;;;;5027764;28;20051;-76
2022/05/26 03:06:14;;;;;;;46.75;7.80;;;13.10;99.90;;;;;;5028125;28;20255;-74
2022/05/26 03:08:42;;;;;;;33.22;6.65;;;13.20;99.90;;;;;;5024933;28;20185;-74
2022/05/26 03:11:12;;;;;;;37.40;7.45;;;13.10;99.90;;;;;;5027903;28;20196;-75
2022/05/26 03:13:38;;;;;;;34.90;6.13;;;13.10;99.90;;;;;;5027896;28;20049;-77
2022/05/26 03:16:05;;;;;;;28.98;6.15;;;13.20;99.90;;;;;;5027736;28;20949;-78
2022/05/26 03:18:31;;;;;;;23.40;4.63;;;13.00;99.90;;;;;;5027811;28;20100;-77
2022/05/26 03:20:59;;;;;;;26.50;5.55;;;13.00;99.90;;;;;;5027752;28;20078;-80
2022/05/26 03:23:25;;;;;;;28.95;4.57;;;13.00;99.90;;;;;;5025569;28;20061;-77
2022/05/26 03:25:50;;;;;;;22.27;4.47;;;13.00;99.90;;;;;;5027564;28;20471;-78
2022/05/26 03:28:16;;;;;;;21.50;4.05;;;12.90;99.90;;;;;;5027057;28;20045;-78
2022/05/26 03:30:41;;;;;;;17.52;3.83;;;13.00;99.90;;;;;;5010239;28;20491;-76
2022/05/26 03:33:07;;;;;;;16.00;3.15;;;13.00;99.90;;;;;;5027382;28;21001;-76
2022/05/26 03:41:01;;;;;;;18.40;3.13;;;12.80;99.90;;;;;;5090240;28;20493;-78
2022/05/26 03:43:33;;;;;;;13.15;2.58;;;12.70;99.90;;;;;;5074116;28;20040;-76
2022/05/26 03:46:00;;;;;;;11.07;2.05;;;12.70;99.90;;;;;;5073593;28;20044;-78
2022/05/26 03:48:26;;;;;;;12.40;1.80;;;12.60;99.90;;;;;;5084358;28;20032;-79
2022/05/26 03:50:51;;;;;;;9.35;1.88;;;12.60;99.90;;;;;;5083415;28;20052;-76
2022/05/26 03:53:17;;;;;;;15.50;2.10;;;12.90;99.90;;;;;;5084143;28;20063;-75
2022/05/26 03:55:43;;;;;;;12.15;1.95;;;12.60;99.90;;;;;;5090075;28;20087;-80
2022/05/26 03:58:08;;;;;;;11.10;2.05;;;12.50;99.90;;;;;;5083081;28;20052;-74
2022/05/26 04:00:35;;;;;;;13.32;2.15;;;12.70;99.90;;;;;;5070599;28;20127;-76
2022/05/26 04:03:01;;;;;;;14.13;1.90;;;12.60;99.90;;;;;;5089382;28;20040;-76
2022/05/26 04:05:27;;;;;;;13.30;1.70;;;12.50;99.90;;;;;;5093227;28;20139;-77
2022/05/26 04:07:52;;;;;;;10.00;1.75;;;12.50;99.90;;;;;;5094086;28;20032;-75
2022/05/26 04:10:19;;;;;;;15.13;1.75;;;12.50;99.90;;;;;;5076149;28;20046;-76
2022/05/26 04:12:45;;;;;;;13.65;2.20;;;12.40;99.90;;;;;;5079783;28;20760;-76
2022/05/26 04:15:12;;;;;;;7.35;1.77;;;12.50;99.90;;;;;;5072793;28;20048;-74
2022/05/26 04:17:38;;;;;;;13.57;2.17;;;12.40;99.90;;;;;;5075361;28;20121;-79
2022/05/26 04:20:06;;;;;;;11.18;1.80;;;12.60;99.90;;;;;;5093339;28;20762;-75
2022/05/26 04:22:32;;;;;;;8.93;1.60;;;12.40;99.90;;;;;;5093989;28;20036;-75
2022/05/26 04:24:59;;;;;;;10.18;2.08;;;12.40;99.90;;;;;;5075306;28;20055;-76
2022/05/26 04:27:28;;;;;;;9.60;1.60;;;12.40;99.90;;;;;;5094201;28;20036;-75
2022/05/26 04:29:55;;;;;;;10.85;2.10;;;12.40;99.90;;;;;;5075260;28;20071;-76
2022/05/26 04:32:21;;;;;;;10.57;2.42;;;12.40;99.90;;;;;;5093585;28;20066;-73
2022/05/26 04:34:48;;;;;;;9.32;1.52;;;12.40;99.90;;;;;;5073291;28;20127;-76
2022/05/26 04:37:15;;;;;;;9.35;1.90;;;12.40;99.90;;;;;;5093744;28;20417;-76
2022/05/26 04:39:41;;;;;;;8.55;1.60;;;12.40;99.90;;;;;;5093253;28;20044;-74
2022/05/26 04:42:07;;;;;;;11.98;1.67;;;12.50;99.90;;;;;;5091645;28;20052;-75
2022/05/26 04:44:37;;;;;;;11.48;1.80;;;12.50;99.90;;;;;;5077258;28;20612;-79
2022/05/26 04:47:03;;;;;;;13.38;1.50;;;12.50;99.90;;;;;;5072762;28;20452;-80
2022/05/26 04:49:29;;;;;;;10.18;2.38;;;12.50;99.90;;;;;;5071769;28;20067;-76
2022/05/26 04:51:55;;;;;;;10.98;2.03;;;12.60;99.90;;;;;;5073273;28;20131;-75
2022/05/26 04:54:21;;;;;;;9.93;1.70;;;12.60;99.90;;;;;;5086631;28;20122;-77
2022/05/26 04:56:47;;;;;;;11.20;1.88;;;12.60;99.90;;;;;;5093127;28;20483;-75
2022/05/26 04:59:12;;;;;;;8.13;1.60;;;12.60;99.90;;;;;;5091427;28;20056;-76
2022/05/26 05:01:38;;;;;;;11.15;1.77;;;13.00;99.90;;;;;;5072631;28;20415;-74
2022/05/26 05:04:04;;;;;;;13.25;1.92;;;12.80;99.90;;;;;;5072828;28;20048;-76
2022/05/26 05:06:30;;;;;;;10.35;1.70;;;12.80;99.90;;;;;;5071424;28;20040;-77
2022/05/26 05:08:55;;;;;;;13.55;1.73;;;13.00;99.90;;;;;;5072843;28;20501;-77
2022/05/26 05:11:21;;;;;;;6.05;1.33;;;12.90;99.90;;;;;;5072519;28;20051;-76
2022/05/26 05:13:47;;;;;;;8.45;1.30;;;13.30;99.90;;;;;;5088610;28;20043;-76
2022/05/26 05:16:27;;;;;;;9.10;1.45;;;13.00;99.90;;;;;;5092388;28;20134;-76
2022/05/26 05:18:53;;;;;;;8.75;1.27;;;13.00;99.90;;;;;;5088150;28;20071;-76
2022/05/26 05:21:23;;;;;;;11.20;1.88;;;13.20;99.90;;;;;;5079063;28;20514;-76
2022/05/26 05:23:56;;;;;;;17.58;2.03;;;13.20;99.90;;;;;;5093036;28;20180;-76
2022/05/26 05:26:24;;;;;;;7.18;1.20;;;13.30;99.90;;;;;;5074804;28;20040;-78
2022/05/26 05:28:59;;;;;;;9.68;1.42;;;13.20;99.90;;;;;;5092922;28;20082;-76
2022/05/26 05:31:31;;;;;;;;;;;13.30;99.90;;;;;;5073713;28;20070;-75
2022/05/26 05:34:12;;;;;;;13.35;1.60;;;13.40;99.90;;;;;;5091989;28;20402;-79
2022/05/26 05:36:39;;;;;;;11.85;1.48;;;13.40;99.90;;;;;;5092584;28;20090;-81
2022/05/26 05:39:05;;;;;;;10.55;1.13;;;13.50;99.90;;;;;;5092341;28;20576;-74
2022/05/26 05:41:33;;;;;;;9.18;1.13;;;13.60;99.90;;;;;;5089208;28;20040;-77
2022/05/26 05:44:00;;;;;;;10.20;1.35;;;13.80;99.90;;;;;;5072040;28;20072;-75
2022/05/26 05:46:33;;;;;;;10.00;1.52;;;13.70;99.90;;;;;;5072132;28;20048;-76
2022/05/26 05:48:59;;;;;;;8.98;1.38;;;13.80;99.90;;;;;;5072305;28;20036;-75
2022/05/26 05:51:25;;;;;;;10.60;1.48;;;13.90;99.90;;;;;;5078960;28;20396;-74
2022/05/26 05:53:51;;;;;;;10.00;1.30;;;14.00;99.90;;;;;;5092461;28;20101;-79
2022/05/26 05:56:17;;;;;;;13.45;1.45;;;13.90;99.90;;;;;;5089767;28;20044;-76
2022/05/26 05:58:43;;;;;;;11.88;1.35;;;14.00;99.90;;;;;;5070016;28;20506;-77
2022/05/26 06:01:08;;;;;;;6.10;0.95;;;14.10;99.90;;;;;;5091057;28;20405;-77
2022/05/26 06:03:35;;;;;;;7.25;1.55;;;14.20;99.90;;;;;;5092239;28;20395;-80
2022/05/26 06:06:07;;;;;;;10.20;1.70;;;14.20;99.90;;;;;;5091467;28;20044;-76
2022/05/26 06:08:33;;;;;;;6.70;1.30;;;14.30;99.90;;;;;;5091925;28;20040;-74
2022/05/26 06:11:00;;;;;;;9.57;1.27;;;14.40;99.90;;;;;;5089608;28;20044;-78
2022/05/26 06:13:26;;;;;;;7.60;1.23;;;14.40;99.90;;;;;;5086319;28;20048;-77
2022/05/26 06:15:53;;;;;;;10.13;1.48;;;14.50;99.90;;;;;;5090951;28;20113;-75
2022/05/26 06:18:19;;;;;;;12.52;1.00;;;14.50;99.90;;;;;;5091549;28;20071;-75
2022/05/26 06:20:45;;;;;;;9.85;1.27;;;14.60;99.90;;;;;;5089638;28;20781;-79
2022/05/26 06:23:11;;;;;;;13.55;1.17;;;14.70;99.90;;;;;;5069343;28;20048;-77
2022/05/26 06:25:37;;;;;;;6.55;1.55;;;14.80;99.90;;;;;;5070945;28;20048;-76
2022/05/26 06:30:47;;;;;;;6.40;1.15;;;14.90;99.90;;;;;;5071616;28;20048;-76
2022/05/26 06:38:43;;;;;;;6.97;1.00;;;15.40;99.90;;;;;;5071971;28;20084;-78
2022/05/26 06:43:56;;;;;;;10.48;1.10;;;15.50;99.90;;;;;;5090866;28;20261;-77
2022/05/26 06:46:22;;;;;;;6.40;0.98;;;15.60;99.90;;;;;;5090940;28;20122;-77
2022/05/26 06:48:48;;;;;;;8.50;1.10;;;15.60;99.90;;;;;;5091024;28;20048;-81
2022/05/26 06:51:14;;;;;;;9.05;1.10;;;15.60;99.90;;;;;;5071333;28;20067;-79
2022/05/26 06:53:39;;;;;;;6.45;1.10;;;15.60;99.90;;;;;;5090728;28;20117;-81
2022/05/26 06:56:06;;;;;;;8.18;1.00;;;15.60;99.90;;;;;;5070860;28;20051;-77
2022/05/26 06:58:32;;;;;;;10.88;1.75;;;15.50;99.90;;;;;;5067083;28;20454;-77
2022/05/26 07:00:58;;;;;;;6.93;1.35;;;15.50;99.90;;;;;;5088656;28;20036;-76
2022/05/26 07:03:25;;;;;;;9.60;1.35;;;15.20;99.90;;;;;;5087261;28;20459;-77
2022/05/26 07:05:51;;;;;;;7.15;1.60;;;15.20;99.90;;;;;;5091178;28;20399;-78
2022/05/26 07:08:17;;;;;;;9.50;1.20;;;15.20;99.90;;;;;;5090702;28;20047;-77
2022/05/26 07:10:45;;;;;;;11.77;1.55;;;15.20;99.90;;;;;;5090720;28;20075;-78
2022/05/26 07:13:12;;;;;;;11.70;1.25;;;15.50;99.90;;;;;;5072842;28;20048;-76
2022/05/26 07:15:38;;;;;;;8.27;1.08;;;15.30;99.90;;;;;;5080391;28;20040;-77
2022/05/26 07:18:05;;;;;;;8.63;1.23;;;15.50;99.90;;;;;;5072182;28;20052;-76
2022/05/26 07:20:33;;;;;;;12.63;1.77;;;15.60;99.90;;;;;;5089456;28;20040;-80
2022/05/26 07:22:59;;;;;;;6.38;0.88;;;15.80;99.90;;;;;;5069966;28;20534;-80
2022/05/26 07:25:25;;;;;;;7.25;1.08;;;15.80;99.90;;;;;;5070232;28;20075;-76
2022/05/26 07:27:51;;;;;;;6.80;1.33;;;15.70;99.90;;;;;;5069959;28;20380;-83
2022/05/26 07:30:17;;;;;;;4.30;1.00;;;15.60;99.90;;;;;;5070072;28;20063;-78
2022/05/26 07:32:42;;;;;;;6.30;1.20;;;15.70;99.90;;;;;;5069985;28;20132;-75
2022/05/26 07:35:08;;;;;;;9.02;1.60;;;15.70;99.90;;;;;;5069777;28;20083;-80
2022/05/26 07:43:08;;;;;;;6.03;1.33;;;15.60;99.90;;;;;;5069685;28;20055;-77
2022/05/26 07:45:35;;;;;;;9.55;1.30;;;15.60;99.90;;;;;;5082241;28;20119;-76
2022/05/26 07:48:00;;;;;;;12.70;1.60;;;15.70;99.90;;;;;;5074244;28;20114;-76
2022/05/26 07:50:26;;;;;;;9.65;1.35;;;15.80;99.90;;;;;;5074002;28;20044;-76
2022/05/26 07:52:52;;;;;;;16.98;1.30;;;15.90;99.90;;;;;;5082150;28;20515;-74
2022/05/26 07:55:19;;;;;;;9.52;1.70;;;15.80;99.90;;;;;;5090553;28;20090;-77
2022/05/26 07:57:45;;;;;;;5.28;0.90;;;15.90;99.90;;;;;;5089705;28;20039;-77
2022/05/26 08:00:12;;;;;;;9.05;1.10;;;16.00;99.90;;;;;;5089890;28;20087;-78
2022/05/26 08:02:39;;;;;;;10.45;1.23;;;16.00;99.90;;;;;;5090053;28;20054;-75
2022/05/26 08:05:06;;;;;;;7.38;0.98;;;16.10;99.90;;;;;;5089778;28;20066;-77
2022/05/26 08:07:32;;;;;;;9.13;1.52;;;16.20;99.90;;;;;;5088215;28;20688;-77
2022/05/26 08:09:58;;;;;;;7.75;1.20;;;16.30;99.90;;;;;;5071085;28;20110;-75
2022/05/26 08:12:24;;;;;;;8.65;1.40;;;16.30;99.90;;;;;;5089778;28;20392;-79
2022/05/26 08:14:50;;;;;;;4.57;0.90;;;16.50;99.90;;;;;;5069117;28;20059;-74
2022/05/26 08:17:19;;;;;;;7.93;1.30;;;16.40;99.90;;;;;;5083054;28;20044;-77
2022/05/26 08:19:57;;;;;;;9.05;1.00;;;16.40;99.90;;;;;;5089753;28;20063;-75
2022/05/26 08:22:23;;;;;;;9.30;1.48;;;16.50;99.90;;;;;;5089823;28;20044;-76
2022/05/26 08:24:50;;;;;;;5.93;0.70;;;16.80;99.90;;;;;;5089568;28;20070;-75
2022/05/26 08:27:16;;;;;;;7.65;1.00;;;16.60;99.90;;;;;;5102515;28;20058;-80
2022/05/26 08:29:42;;;;;;;6.40;1.00;;;16.70;99.90;;;;;;5105498;28;20040;-74
2022/05/26 08:32:08;;;;;;;6.40;1.55;;;16.70;99.90;;;;;;5070188;28;20146;-72
2022/05/26 08:34:33;;;;;;;6.22;0.98;;;16.80;99.90;;;;;;5089007;28;20036;-77
2022/05/26 08:36:59;;;;;;;4.68;0.80;;;16.90;99.90;;;;;;5088344;28;20355;-73
2022/05/26 08:39:25;;;;;;;7.50;0.90;;;17.00;99.90;;;;;;5089603;28;20044;-80
2022/05/26 08:41:53;;;;;;;6.80;0.88;;;16.70;99.90;;;;;;5090717;28;20487;-76
2022/05/26 08:44:27;;;;;;;8.52;1.10;;;16.70;99.90;;;;;;5088085;28;20495;-76
2022/05/26 08:47:01;;;;;;;;;;;16.70;99.90;;;;;;5088849;28;20693;-73
2022/05/26 08:50:00;;;;;;;7.90;1.25;;;16.80;99.90;;;;;;5088614;28;19974;-75
2022/05/26 08:52:36;;;;;;;8.80;0.82;;;16.90;99.90;;;;;;5054917;28;20084;-75
2022/05/26 08:55:10;;;;;;;10.73;1.00;;;17.00;99.90;;;;;;5089876;28;20491;-76
2022/05/26 08:57:49;;;;;;;4.47;1.00;;;17.10;99.90;;;;;;5093516;28;20495;-79
2022/05/26 09:00:19;;;;;;;4.88;0.82;;;16.90;99.90;;;;;;5074459;28;20071;-76
2022/05/26 09:02:45;;;;;;;5.38;1.10;;;16.80;99.90;;;;;;5093240;28;20052;-75
2022/05/26 09:05:15;;;;;;;10.38;1.00;;;16.70;99.90;;;;;;5093435;28;20066;-74
2022/05/26 09:13:41;;;;;;;5.60;0.80;;;17.20;99.90;;;;;;5072428;28;20063;-77
2022/05/26 09:16:08;;;;;;;9.63;1.05;;;17.40;99.90;;;;;;5073063;28;20049;-73
2022/05/26 09:18:35;;;;;;;8.45;0.93;;;17.50;99.90;;;;;;5089360;28;20549;-80
2022/05/26 09:21:19;;;;;;;4.00;1.00;;;17.70;99.90;;;;;;5094125;28;20052;-80
2022/05/26 09:23:47;;;;;;;3.88;0.63;;;17.80;99.90;;;;;;5072474;28;20045;-77
2022/05/26 09:26:20;;;;;;;5.70;0.70;;;17.90;99.90;;;;;;5072121;28;20078;-78
2022/05/26 09:28:51;;;;;;;7.88;0.93;;;17.90;99.90;;;;;;5072157;28;20156;-77
2022/05/26 09:31:31;;;;;;;6.00;0.80;;;17.80;99.90;;;;;;5088598;28;20063;-76
2022/05/26 09:34:18;;;;;;;5.65;0.80;;;17.90;99.90;;;;;;5092526;28;20090;-77
2022/05/26 09:36:48;;;;;;;3.25;1.08;;;18.20;99.90;;;;;;5092375;28;20795;-75
2022/05/26 09:39:19;;;;;;;6.55;0.80;;;18.40;99.90;;;;;;5092671;28;20053;-78
2022/05/26 09:41:49;;;;;;;5.10;0.73;;;18.40;99.90;;;;;;5092503;28;20071;-78
2022/05/26 09:44:44;;;;;;;6.60;0.73;;;18.40;99.90;;;;;;5074320;28;20131;-77
2022/05/26 09:47:18;;;;;;;5.43;0.80;;;18.50;99.90;;;;;;5092436;28;20463;-76
2022/05/26 09:49:50;;;;;;;4.30;1.00;;;18.60;99.90;;;;;;5092464;28;20077;-75
2022/05/26 09:52:23;;;;;;;6.22;0.98;;;18.70;99.90;;;;;;5092097;28;20105;-77
2022/05/26 09:55:20;;;;;;;3.58;0.50;;;18.30;99.90;;;;;;5091878;28;20544;-76
2022/05/26 09:57:47;;;;;;;6.22;0.90;;;18.40;99.90;;;;;;5073753;28;20048;-78
2022/05/26 10:00:34;;;;;;;2.25;0.85;;;18.30;99.90;;;;;;5091826;28;20083;-78
2022/05/26 10:03:05;;;;;;;4.80;0.80;;;18.30;99.90;;;;;;5090917;28;20059;-76
2022/05/26 10:05:47;;;;;;;5.88;1.45;;;18.40;99.90;;;;;;5091917;28;20051;-79
2022/05/26 10:08:41;;;;;;;5.38;0.65;;;18.40;99.90;;;;;;5091819;28;20040;-76
2022/05/26 10:11:15;;;;;;;3.78;0.70;;;18.50;99.90;;;;;;5091877;28;20059;-79
2022/05/26 10:14:00;;;;;;;2.92;0.50;;;18.30;99.90;;;;;;5073578;28;20112;-74
2022/05/26 10:16:49;;;;;;;10.90;1.27;;;18.10;99.90;;;;;;5091869;28;20109;-74
2022/05/26 10:19:36;;;;;;;5.35;0.70;;;17.90;99.90;;;;;;4989756;28;20170;-76
2022/05/26 10:22:09;;;;;;;4.55;0.70;;;18.20;99.90;;;;;;4973642;28;20086;-78
2022/05/26 10:24:59;;;;;;;4.80;0.88;;;18.10;99.90;;;;;;4989484;28;20069;-79
2022/05/26 10:27:55;;;;;;;5.30;0.88;;;18.00;99.90;;;;;;4989421;28;20119;-79
2022/05/26 10:30:44;;;;;;;8.57;0.70;;;17.70;99.90;;;;;;4980057;28;20542;-75
2022/05/26 10:33:21;;;;;;;8.82;0.68;;;17.90;99.90;;;;;;4969743;28;20050;-81
2022/05/26 10:36:04;;;;;;;7.05;0.77;;;17.80;99.90;;;;;;4969697;28;20158;-78
2022/05/26 10:38:41;;;;;;;3.90;0.60;;;17.80;99.90;;;;;;4988937;28;20046;-77
2022/05/26 10:41:21;;;;;;;4.65;0.88;;;18.10;99.90;;;;;;4972975;28;20161;-77
2022/05/26 10:43:49;;;;;;;6.60;0.98;;;18.30;99.90;;;;;;4973197;28;20074;-77
2022/05/26 10:46:18;;;;;;;3.45;0.70;;;18.30;99.90;;;;;;4988788;28;20061;-80
2022/05/26 10:49:05;;;;;;;5.40;0.88;;;18.40;99.90;;;;;;4988929;28;20603;-76
2022/05/26 10:51:44;;;;;;;6.38;0.90;;;18.50;99.90;;;;;;4989051;28;20046;-79
2022/05/26 10:54:26;;;;;;;12.27;1.10;;;19.00;99.90;;;;;;4972214;28;20056;-79
2022/05/26 10:57:03;;;;;;;4.05;0.80;;;19.20;99.90;;;;;;5060140;28;20130;-76
2022/05/26 10:59:40;;;;;;;8.80;0.90;;;19.40;99.90;;;;;;5090968;28;20493;-78
2022/05/26 11:02:25;;;;;;;4.25;0.70;;;19.50;99.90;;;;;;5090825;28;20044;-76
2022/05/26 11:05:13;;;;;;;2.95;0.93;;;19.60;99.90;;;;;;5090778;28;20040;-77
2022/05/26 11:07:45;;;;;;;5.20;0.90;;;19.40;99.90;;;;;;5090870;28;20071;-78
2022/05/26 11:10:19;;;;;;;3.42;0.80;;;19.50;99.90;;;;;;5090897;28;20092;-75
2022/05/26 11:13:13;;;;;;;4.32;0.65;;;19.70;99.90;;;;;;5090409;28;20055;-77
2022/05/26 11:18:48;;;;;;;7.28;1.33;;;19.50;99.90;;;;;;5072591;28;20056;-77
2022/05/26 11:21:18;;;;;;;4.88;1.10;;;19.40;99.90;;;;;;5090367;28;20052;-76
2022/05/26 11:23:44;;;;;;;4.30;0.80;;;19.10;99.90;;;;;;5090415;28;20637;-77
2022/05/26 11:26:20;;;;;;;7.57;1.00;;;18.90;99.90;;;;;;5090256;28;20139;-77
2022/05/26 11:28:59;;;;;;;3.90;0.77;;;18.80;99.90;;;;;;5090398;28;20036;-77
2022/05/26 11:37:36;;;;;;;5.78;1.10;;;18.70;99.90;;;;;;5086606;28;20164;-77
2022/05/26 11:40:08;;;;;;;9.27;1.27;;;18.50;99.90;;;;;;5090477;28;20086;-79
2022/05/26 11:42:51;;;;;;;5.75;1.13;;;18.50;99.90;;;;;;5072097;28;20044;-76
2022/05/26 11:45:19;;;;;;;5.38;1.02;;;18.40;99.90;;;;;;5090278;28;20032;-77
2022/05/26 11:47:54;;;;;;;5.05;1.13;;;18.50;99.90;;;;;;5090003;28;20047;-78
2022/05/26 11:50:31;;;;;;;11.80;1.50;;;18.50;99.90;;;;;;5090330;28;20128;-79
2022/05/26 11:52:59;;;;;;;3.33;0.80;;;18.70;99.90;;;;;;5090021;28;20055;-78
2022/05/26 11:55:53;;;;;;;5.75;1.00;;;18.70;99.90;;;;;;5090405;28;20538;-75
2022/05/26 11:58:27;;;;;;;3.40;1.13;;;18.70;99.90;;;;;;5090395;28;20040;-78
2022/05/26 12:01:12;;;;;;;;;;;18.60;99.90;;;;;;5090867;28;20051;-77
2022/05/26 12:03:53;;;;;;;7.53;1.20;;;18.80;99.90;;;;;;5089939;28;19920;-77
2022/05/26 12:06:42;;;;;;;6.18;1.55;;;19.00;99.90;;;;;;5090228;28;20410;-75
2022/05/26 12:09:19;;;;;;;4.85;1.00;;;18.90;99.90;;;;;;5090287;28;20059;-75
2022/05/26 12:11:53;;;;;;;3.92;0.90;;;18.90;99.90;;;;;;5090218;28;20051;-77
2022/05/26 12:14:34;;;;;;;12.80;1.80;;;18.90;99.90;;;;;;5090068;28;20044;-80
2022/05/26 12:17:33;;;;;;;6.72;1.25;;;19.00;99.90;;;;;;5089728;28;20361;-78
2022/05/26 12:20:08;;;;;;;6.75;1.25;;;18.90;99.90;;;;;;5071757;28;20055;-77
2022/05/26 12:22:37;;;;;;;;;;;18.90;99.90;;;;;;5072079;28;20165;-73
2022/05/26 12:25:17;;;;;;;4.32;0.88;;;19.10;99.90;;;;;;5090699;28;19924;-82
2022/05/26 12:27:49;;;;;;;7.97;0.93;;;19.10;99.90;;;;;;5094070;28;20042;-75
2022/05/26 12:30:45;;;;;;;6.93;1.17;;;18.90;99.90;;;;;;5093599;28;20055;-77
2022/05/26 12:33:47;;;;;;;5.07;1.05;;;19.00;99.90;;;;;;5093389;28;20139;-80
2022/05/26 12:36:22;;;;;;;10.05;1.73;;;18.70;99.90;;;;;;5093469;28;20469;-79
2022/05/26 12:38:51;;;;;;;5.85;1.38;;;18.70;99.90;;;;;;5075334;28;20105;-77
2022/05/26 12:41:22;;;;;;;6.53;1.10;;;18.70;99.90;;;;;;5093455;28;20052;-77
2022/05/26 12:44:00;;;;;;;5.03;0.90;;;18.80;99.90;;;;;;5093330;28;20078;-76
2022/05/26 12:46:40;;;;;;;5.82;1.20;;;18.60;99.90;;;;;;5075398;28;20058;-78
2022/05/26 12:49:11;;;;;;;5.57;1.33;;;18.50;99.90;;;;;;5074862;28;20048;-77
2022/05/26 12:51:39;;;;;;;4.32;0.60;;;18.40;99.90;;;;;;5093224;28;20094;-77
2022/05/26 12:54:09;;;;;;;10.35;1.25;;;18.40;99.90;;;;;;5093336;28;20669;-77
2022/05/26 12:56:57;;;;;;;5.45;0.93;;;18.50;99.90;;;;;;5093137;28;20163;-75
2022/05/26 12:59:29;;;;;;;5.03;0.65;;;18.40;99.90;;;;;;5074894;28;20143;-77
2022/05/26 13:01:55;;;;;;;7.53;0.90;;;18.30;99.90;;;;;;5093080;28;20043;-78
2022/05/26 13:04:34;;;;;;;9.43;1.00;;;18.40;99.90;;;;;;5092853;28;20048;-77
2022/05/26 13:07:07;;;;;;;6.50;0.90;;;18.50;99.90;;;;;;5092980;28;20090;-77
2022/05/26 13:09:39;;;;;;;7.82;1.17;;;18.50;99.90;;;;;;5093288;28;20054;-77
2022/05/26 13:12:06;;;;;;;6.13;0.80;;;18.50;99.90;;;;;;5093004;28;20483;-76
2022/05/26 13:14:50;;;;;;;10.07;1.08;;;18.40;99.90;;;;;;5092896;28;20040;-78
2022/05/26 13:17:19;;;;;;;8.68;1.08;;;18.20;99.90;;;;;;5092848;28;20062;-75
2022/05/26 13:19:48;;;;;;;5.45;0.80;;;18.20;99.90;;;;;;5092290;28;20052;-75
2022/05/26 13:22:31;;;;;;;7.13;1.20;;;18.30;99.90;;;;;;5092871;28;20084;-77
2022/05/26 13:24:59;;;;;;;7.47;1.25;;;18.20;99.90;;;;;;5092714;28;20126;-76
2022/05/26 13:27:38;;;;;;;12.85;1.25;;;18.30;99.90;;;;;;5092832;28;20063;-78
2022/05/26 13:33:11;;;;;;;8.65;1.70;;;18.20;99.90;;;;;;5009917;28;20060;-77
2022/05/26 13:35:55;;;;;;;7.65;1.27;;;18.20;99.90;;;;;;5009624;28;20058;-76
2022/05/26 13:38:30;;;;;;;8.43;1.88;;;18.20;99.90;;;;;;5010024;28;20061;-77
2022/05/26 13:40:57;;;;;;;9.73;1.73;;;18.00;99.90;;;;;;5009828;28;20053;-76
2022/05/26 13:43:24;;;;;;;9.32;1.50;;;17.90;99.90;;;;;;4993557;28;20501;-76
2022/05/26 13:45:51;;;;;;;6.97;1.08;;;18.20;99.90;;;;;;5009887;28;20042;-75
2022/05/26 13:48:27;;;;;;;7.95;1.20;;;18.10;99.90;;;;;;5009809;28;20050;-75
2022/05/26 13:50:56;;;;;;;5.93;1.50;;;18.10;99.90;;;;;;5009486;28;20537;-76